createdAt,value
2017-12-30T00:00:03.794Z,-1
2017-12-30T00:15:02.510Z,-0.4
2017-12-30T00:30:03.197Z,0.1
2017-12-30T00:46:59.905Z,0.4
2017-12-30T01:00:50.501Z,0.6
2017-12-30T01:15:10.801Z,0.8
2017-12-30T01:30:03.230Z,0.9
2017-12-30T01:45:02.998Z,1.2
2017-12-30T02:00:02.827Z,1.6
2017-12-30T02:15:03.216Z,1.8
2017-12-30T02:30:02.699Z,1.8
2017-12-30T02:45:03.274Z,2.1
2017-12-30T03:00:02.559Z,2.1
2017-12-30T03:15:02.832Z,1.9
2017-12-30T03:31:34.305Z,2.1
2017-12-30T03:45:02.631Z,2.2
2017-12-30T04:00:03.098Z,2.4
2017-12-30T04:15:07.740Z,2.2
2017-12-30T04:30:18.801Z,2.1
2017-12-30T05:00:10.017Z,2.1
2017-12-30T05:15:02.639Z,2.1
2017-12-30T05:30:03.221Z,1.9
2017-12-30T05:45:02.804Z,1.7
2017-12-30T06:00:03.158Z,1.6
2017-12-30T06:15:32.235Z,1.5
2017-12-30T06:30:02.806Z,1.2
2017-12-30T06:45:03.304Z,0.9
2017-12-30T07:00:02.529Z,0.4
2017-12-30T07:16:13.881Z,0.6
2017-12-30T07:30:05.400Z,0.4
2017-12-30T07:45:02.875Z,0.4
2017-12-30T08:00:03.161Z,0.4
2017-12-30T08:15:02.504Z,0.4
2017-12-30T08:30:13.111Z,0.8
2017-12-30T09:01:41.136Z,1.1
2017-12-30T09:15:02.804Z,1.1
2017-12-30T09:30:03.569Z,1.4
2017-12-30T09:45:41.069Z,1.6
2017-12-30T10:00:03.521Z,1.8
2017-12-30T10:15:05.200Z,1.9
2017-12-30T10:30:02.583Z,2.1
2017-12-30T10:45:03.323Z,2.4
2017-12-30T11:00:03.676Z,2.4
2017-12-30T11:15:03.084Z,2.6
2017-12-30T11:30:02.483Z,2.6
2017-12-30T11:45:02.779Z,2.6
2017-12-30T12:00:05.449Z,2.4
2017-12-30T12:15:56.939Z,2.3
2017-12-30T12:30:25.316Z,2.5
2017-12-30T13:00:03.487Z,2.5
2017-12-30T13:15:02.946Z,2.4
2017-12-30T13:30:02.263Z,2.6
2017-12-30T13:45:44.164Z,2.5
2017-12-30T14:00:36.079Z,2.2
2017-12-30T14:15:02.523Z,2.3
2017-12-30T14:30:05.904Z,2.3
2017-12-30T14:45:04.470Z,2.4
2017-12-30T15:00:03.052Z,2.6
2017-12-30T15:30:02.915Z,2.8
2017-12-30T15:45:06.242Z,2.8
2017-12-30T16:00:02.491Z,2.8
2017-12-30T16:15:20.515Z,3.4
2017-12-30T16:30:03.190Z,3.5
2017-12-30T16:45:23.902Z,3.5
2017-12-30T17:00:02.651Z,3.4
2017-12-30T17:16:36.491Z,3.6
2017-12-30T17:30:03.311Z,3.8
2017-12-30T17:45:02.903Z,4.6
2017-12-30T18:00:02.655Z,5
2017-12-30T18:15:03.002Z,5.1
2017-12-30T18:30:02.447Z,4.8
2017-12-30T18:45:31.910Z,4.6
2017-12-30T19:00:03.213Z,4.4
2017-12-30T19:15:02.979Z,5.3
2017-12-30T19:30:02.410Z,5.5
2017-12-30T19:45:02.727Z,5.9
2017-12-30T20:15:04.099Z,6.6
2017-12-30T20:30:02.631Z,6.8
2017-12-30T20:45:47.063Z,6.9
2017-12-30T21:00:21.587Z,6.6
2017-12-30T21:30:05.878Z,7.2
2017-12-30T21:45:13.296Z,7.4
2017-12-30T22:00:02.611Z,7.6
2017-12-30T22:15:17.719Z,7.8
2017-12-30T22:30:04.626Z,7.9
2017-12-30T22:45:02.972Z,8.2
2017-12-30T23:00:02.412Z,8.8
2017-12-30T23:15:03.225Z,9
2017-12-30T23:30:02.608Z,8.9
2017-12-30T23:45:08.014Z,9.1
